Terminal Aerodrome Forecast
Issued by NWS Oklahoma City, OK

Home | Current Version | Previous Version | Text Only | Print | Product List | Glossary On
Versions: 1 2 3 4 5 6 7 8 9 10 11 12 13 14 15 16 17 18 19 20 21 22 23 24 25 26
000
FTUS44 KOUN 301730
TAFOUN
TAF
KOUN 301730Z 3018/3118 01015G20KT P6SM SCT070 BKN250
     FM302100 08007KT P6SM BKN070 BKN250
      TEMPO 3022/3102 3SM TSRA BR BKN050CB BKN100
     FM310300 08006KT P6SM SCT040 BKN100
     FM311300 14007KT P6SM SCT040 BKN100 PROB30 3114/3118 4SM -TSRA
      BR BKN040CB=

USA.gov is the U.S. government's official web portal to all federal, state and local government web resources and services.